Time;durP1;ratioP1;P1;durP2;ratioP2;P2;SDS_P1;SDS_P2;PMS_P1;PMS_P2;Temp;Humidity;BMP_temperature;BMP_pressure;BME280_temperature;BME280_humidity;BME280_pressure;Samples;Min_cycle;Max_cycle;Signal;HPM_P1;HPM_P2
2021/06/12 00:00:32;;;;;;;3.92;3.53;;;;;;;;;;5010603;28;20022;-60
2021/06/12 00:02:59;;;;;;;4.20;3.40;;;;;;;;;;5009800;28;20132;-61
2021/06/12 00:05:24;;;;;;;4.38;3.28;;;;;;;;;;5008186;28;20030;-60
2021/06/12 00:07:49;;;;;;;4.03;3.65;;;;;;;;;;4990565;28;20030;-61
2021/06/12 00:10:20;;;;;;;4.18;3.58;;;;;;;;;;4991006;28;20115;-59
2021/06/12 00:12:47;;;;;;;3.67;3.38;;;;;;;;;;4990964;28;20093;-60
2021/06/12 00:15:13;;;;;;;4.20;3.42;;;;;;;;;;4994718;28;20026;-61
2021/06/12 00:17:38;;;;;;;3.70;3.35;;;;;;;;;;5009390;28;20449;-60
2021/06/12 00:20:05;;;;;;;3.65;3.30;;;;;;;;;;5009906;28;20084;-60
2021/06/12 00:22:31;;;;;;;3.70;3.30;;;;;;;;;;5010378;28;20453;-59
2021/06/12 00:24:56;;;;;;;4.10;3.70;;;;;;;;;;5011250;28;20160;-59
2021/06/12 00:27:21;;;;;;;4.50;3.25;;;;;;;;;;5009597;28;20056;-60
2021/06/12 00:29:48;;;;;;;3.38;3.08;;;;;;;;;;5011270;28;20431;-60
2021/06/12 00:32:14;;;;;;;4.00;3.30;;;;;;;;;;4993213;28;20053;-61
2021/06/12 00:34:39;;;;;;;3.70;3.05;;;;;;;;;;4991336;28;20058;-59
2021/06/12 00:37:05;;;;;;;3.83;3.08;;;;;;;;;;4989631;28;20482;-60
2021/06/12 00:39:30;;;;;;;3.10;2.65;;;;;;;;;;5001782;28;20367;-59
2021/06/12 00:41:55;;;;;;;3.67;3.20;;;;;;;;;;5010062;28;20064;-60
2021/06/12 00:44:21;;;;;;;3.80;3.40;;;;;;;;;;5010270;28;20064;-61
2021/06/12 00:46:46;;;;;;;3.45;3.15;;;;;;;;;;5008045;28;20030;-60
2021/06/12 00:49:11;;;;;;;4.07;3.30;;;;;;;;;;5008297;28;20093;-60
2021/06/12 00:51:37;;;;;;;4.00;3.20;;;;;;;;;;5009938;28;20046;-60
2021/06/12 00:54:02;;;;;;;3.28;2.97;;;;;;;;;;5009279;28;20478;-60
2021/06/12 00:56:27;;;;;;;3.25;2.80;;;;;;;;;;5007899;28;20412;-59
2021/06/12 00:58:53;;;;;;;3.85;2.80;;;;;;;;;;5031035;23;20056;-54
2021/06/12 01:01:20;;;;;;;3.20;2.90;;;;;;;;;;5029494;28;20032;-55
2021/06/12 01:03:45;;;;;;;3.45;3.15;;;;;;;;;;5044913;28;20500;-53
2021/06/12 01:06:12;;;;;;;3.42;2.88;;;;;;;;;;5046549;28;20025;-56
2021/06/12 01:08:38;;;;;;;3.85;3.00;;;;;;;;;;5046833;28;20033;-54
2021/06/12 01:11:04;;;;;;;3.20;2.90;;;;;;;;;;5048939;28;20381;-57
2021/06/12 01:13:41;;;;;;;3.72;2.97;;;;;;;;;;5006206;28;20034;-54
2021/06/12 01:16:12;;;;;;;3.40;2.80;;;;;;;;;;5008690;28;20037;-55
2021/06/12 01:18:38;;;;;;;;;;;;;;;;;;5000306;28;20025;-54
2021/06/12 01:21:22;;;;;;;3.17;2.80;;;;;;;;;;5025978;28;19913;-56
2021/06/12 01:23:54;;;;;;;4.03;2.90;;;;;;;;;;5025991;28;20025;-53
2021/06/12 01:26:48;;;;;;;4.00;3.03;;;;;;;;;;5027958;28;20038;-53
2021/06/12 01:29:25;;;;;;;3.30;3.00;;;;;;;;;;5027102;28;20033;-54
2021/06/12 01:31:51;;;;;;;3.53;2.85;;;;;;;;;;5027567;28;20060;-54
2021/06/12 01:34:18;;;;;;;3.33;2.88;;;;;;;;;;5000263;28;20025;-59
2021/06/12 01:36:43;;;;;;;4.20;3.00;;;;;;;;;;5005666;28;20041;-56
2021/06/12 01:39:09;;;;;;;3.78;2.97;;;;;;;;;;5007039;28;20061;-56
2021/06/12 01:41:34;;;;;;;3.42;3.13;;;;;;;;;;5012298;28;20105;-57
2021/06/12 01:43:59;;;;;;;3.92;2.90;;;;;;;;;;5020642;28;20033;-56
2021/06/12 01:46:25;;;;;;;4.50;3.53;;;;;;;;;;5010619;28;20022;-59
2021/06/12 01:48:50;;;;;;;4.00;2.90;;;;;;;;;;5008907;28;20025;-54
2021/06/12 01:51:16;;;;;;;3.38;2.92;;;;;;;;;;5006308;28;20026;-56
2021/06/12 01:53:41;;;;;;;3.03;2.72;;;;;;;;;;5021435;28;20045;-57
2021/06/12 01:56:07;;;;;;;3.60;2.70;;;;;;;;;;5017596;28;20032;-54
2021/06/12 01:58:34;;;;;;;3.70;3.03;;;;;;;;;;5005275;28;20170;-57
2021/06/12 02:00:59;;;;;;;3.42;2.95;;;;;;;;;;5014615;28;20037;-56
2021/06/12 02:03:25;;;;;;;3.40;2.97;;;;;;;;;;5026077;28;20025;-53
2021/06/12 02:05:50;;;;;;;3.78;3.10;;;;;;;;;;5026419;28;20270;-57
2021/06/12 02:08:16;;;;;;;3.55;3.10;;;;;;;;;;5006992;28;20037;-54
2021/06/12 02:10:41;;;;;;;3.30;3.00;;;;;;;;;;5007475;28;20018;-58
2021/06/12 02:13:07;;;;;;;3.47;3.17;;;;;;;;;;5005735;28;20084;-54
2021/06/12 02:15:33;;;;;;;3.13;2.83;;;;;;;;;;5007510;28;20018;-57
2021/06/12 02:18:02;;;;;;;3.35;2.83;;;;;;;;;;5001572;28;20026;-54
2021/06/12 02:20:28;;;;;;;3.13;2.83;;;;;;;;;;5013666;28;20175;-53
2021/06/12 02:22:53;;;;;;;3.55;3.20;;;;;;;;;;5018772;28;20026;-59
2021/06/12 02:25:19;;;;;;;4.13;3.17;;;;;;;;;;5044208;28;20040;-53
2021/06/12 02:27:47;;;;;;;3.42;3.13;;;;;;;;;;5048929;28;20032;-56
2021/06/12 02:30:13;;;;;;;3.50;3.00;;;;;;;;;;5017878;28;20049;-53
2021/06/12 02:32:38;;;;;;;4.40;3.20;;;;;;;;;;5029084;28;20478;-57
2021/06/12 02:35:05;;;;;;;3.70;3.03;;;;;;;;;;5030069;28;20040;-58
2021/06/12 02:37:31;;;;;;;4.18;3.15;;;;;;;;;;5029751;28;20048;-55
2021/06/12 02:39:56;;;;;;;3.67;3.00;;;;;;;;;;5028806;28;20017;-59
2021/06/12 02:42:21;;;;;;;3.50;3.20;;;;;;;;;;5030783;28;20096;-54
2021/06/12 02:44:47;;;;;;;3.47;2.80;;;;;;;;;;5031176;28;20075;-56
2021/06/12 02:47:12;;;;;;;3.67;3.28;;;;;;;;;;5022461;28;20070;-57
2021/06/12 02:49:38;;;;;;;3.60;3.03;;;;;;;;;;5029764;28;20477;-54
2021/06/12 02:52:05;;;;;;;3.75;3.20;;;;;;;;;;5028322;28;20025;-54
2021/06/12 02:54:31;;;;;;;3.33;3.03;;;;;;;;;;5015720;28;20156;-54
2021/06/12 02:56:59;;;;;;;3.80;2.75;;;;;;;;;;5021081;28;20116;-57
2021/06/12 02:59:24;;;;;;;4.35;2.97;;;;;;;;;;4993406;28;20034;-54
2021/06/12 03:01:50;;;;;;;3.63;3.00;;;;;;;;;;5022927;28;20156;-56
2021/06/12 03:04:16;;;;;;;3.40;3.10;;;;;;;;;;5022376;28;20100;-58
2021/06/12 03:06:43;;;;;;;3.80;3.13;;;;;;;;;;5008190;28;20167;-55
2021/06/12 03:09:13;;;;;;;3.72;2.60;;;;;;;;;;5032034;28;20021;-58
2021/06/12 03:11:38;;;;;;;4.18;2.90;;;;;;;;;;5018849;28;20030;-56
2021/06/12 03:14:03;;;;;;;3.47;3.15;;;;;;;;;;4993617;28;20022;-56
2021/06/12 03:16:29;;;;;;;3.10;2.80;;;;;;;;;;5003698;28;20029;-57
2021/06/12 03:18:54;;;;;;;3.72;3.22;;;;;;;;;;5010486;28;20235;-54
2021/06/12 03:21:23;;;;;;;3.85;3.08;;;;;;;;;;5042459;28;20104;-55
2021/06/12 03:23:48;;;;;;;3.78;3.08;;;;;;;;;;5032366;28;20072;-55
2021/06/12 03:26:14;;;;;;;3.03;2.72;;;;;;;;;;5028776;28;20108;-55
2021/06/12 03:28:39;;;;;;;4.07;3.53;;;;;;;;;;5027917;28;20030;-56
2021/06/12 03:31:04;;;;;;;3.88;3.47;;;;;;;;;;5028964;28;20553;-54
2021/06/12 03:33:30;;;;;;;3.63;3.33;;;;;;;;;;5011333;28;20104;-54
2021/06/12 03:35:55;;;;;;;3.38;3.00;;;;;;;;;;5027624;28;20022;-57
2021/06/12 03:38:21;;;;;;;3.72;3.22;;;;;;;;;;5027766;28;20504;-56
2021/06/12 03:40:46;;;;;;;3.95;3.55;;;;;;;;;;5028317;28;20025;-54
2021/06/12 03:43:11;;;;;;;3.17;2.88;;;;;;;;;;5030030;28;20112;-57
2021/06/12 03:45:41;;;;;;;3.80;3.40;;;;;;;;;;5017706;28;20062;-56
2021/06/12 03:48:08;;;;;;;4.37;3.50;;;;;;;;;;5007376;28;20045;-58
2021/06/12 03:50:33;;;;;;;4.00;3.00;;;;;;;;;;5008586;28;20068;-56
2021/06/12 03:52:59;;;;;;;3.67;3.17;;;;;;;;;;5008856;28;20030;-56
2021/06/12 03:55:24;;;;;;;3.20;2.75;;;;;;;;;;5008653;28;20067;-53
2021/06/12 03:57:49;;;;;;;4.25;3.33;;;;;;;;;;5008387;28;20449;-57
2021/06/12 04:00:16;;;;;;;3.20;2.90;;;;;;;;;;5009887;28;20030;-58
2021/06/12 04:02:41;;;;;;;3.83;3.22;;;;;;;;;;5029502;28;20026;-54
2021/06/12 04:05:07;;;;;;;3.50;3.20;;;;;;;;;;5029304;28;20114;-54
2021/06/12 04:07:32;;;;;;;3.85;3.40;;;;;;;;;;5016227;28;20026;-57
2021/06/12 04:09:58;;;;;;;3.67;3.30;;;;;;;;;;5009735;28;20021;-54
2021/06/12 04:12:23;;;;;;;3.83;2.90;;;;;;;;;;5023045;28;20112;-54
2021/06/12 04:14:48;;;;;;;3.85;3.28;;;;;;;;;;5028312;28;20096;-57
2021/06/12 04:17:15;;;;;;;5.25;3.38;;;;;;;;;;5011033;28;20437;-54
2021/06/12 04:19:40;;;;;;;3.85;3.30;;;;;;;;;;5027752;28;20033;-57
2021/06/12 04:22:06;;;;;;;4.13;3.40;;;;;;;;;;5028970;28;20026;-57
2021/06/12 04:24:32;;;;;;;3.58;3.20;;;;;;;;;;5008968;28;20096;-55
2021/06/12 04:26:57;;;;;;;4.05;3.40;;;;;;;;;;5008194;28;20025;-57
2021/06/12 04:29:23;;;;;;;4.05;3.33;;;;;;;;;;5018580;28;20083;-55
2021/06/12 04:31:48;;;;;;;4.07;3.35;;;;;;;;;;5028933;28;20044;-60
2021/06/12 04:34:13;;;;;;;4.30;3.90;;;;;;;;;;5046596;28;20021;-60
2021/06/12 04:36:39;;;;;;;3.65;3.28;;;;;;;;;;5047477;28;20025;-61
2021/06/12 04:39:04;;;;;;;4.40;3.80;;;;;;;;;;5048287;28;20090;-62
2021/06/12 04:41:30;;;;;;;4.05;3.40;;;;;;;;;;5026761;28;20109;-59
2021/06/12 04:43:55;;;;;;;4.47;3.70;;;;;;;;;;5029010;28;20473;-59
2021/06/12 04:46:21;;;;;;;3.88;3.47;;;;;;;;;;5017732;28;20109;-62
2021/06/12 04:48:46;;;;;;;4.13;3.70;;;;;;;;;;5007827;28;20026;-61
2021/06/12 04:51:11;;;;;;;4.05;3.65;;;;;;;;;;5017134;28;20024;-57
2021/06/12 04:53:37;;;;;;;4.93;3.50;;;;;;;;;;5016854;28;20104;-59
2021/06/12 04:56:02;;;;;;;4.43;3.97;;;;;;;;;;5008867;28;20026;-62
2021/06/12 04:58:28;;;;;;;4.43;3.70;;;;;;;;;;5007498;28;20121;-60
2021/06/12 05:00:53;;;;;;;4.22;3.58;;;;;;;;;;5014789;28;20033;-62
2021/06/12 05:03:19;;;;;;;4.07;3.50;;;;;;;;;;5009185;28;20057;-63
2021/06/12 05:05:45;;;;;;;4.30;3.90;;;;;;;;;;5038209;28;20048;-61
2021/06/12 05:08:11;;;;;;;4.10;3.70;;;;;;;;;;5046744;28;20091;-61
2021/06/12 05:10:36;;;;;;;4.47;3.55;;;;;;;;;;5048175;28;20075;-60
2021/06/12 05:13:01;;;;;;;4.10;3.50;;;;;;;;;;5031815;28;20529;-60
2021/06/12 05:15:28;;;;;;;4.88;3.95;;;;;;;;;;5009225;28;20041;-60
2021/06/12 05:17:54;;;;;;;4.38;3.60;;;;;;;;;;5007189;28;20057;-62
2021/06/12 05:20:21;;;;;;;4.75;3.92;;;;;;;;;;5021800;28;20108;-61
2021/06/12 05:22:48;;;;;;;5.03;3.88;;;;;;;;;;5023144;28;20490;-60
2021/06/12 05:25:14;;;;;;;4.82;4.32;;;;;;;;;;5007872;28;20040;-61
2021/06/12 05:27:39;;;;;;;4.60;4.10;;;;;;;;;;5026608;28;20060;-60
2021/06/12 05:30:05;;;;;;;3.88;3.47;;;;;;;;;;5043978;28;20028;-60
2021/06/12 05:32:30;;;;;;;4.30;3.90;;;;;;;;;;5027818;28;20098;-59
2021/06/12 05:34:56;;;;;;;4.60;4.00;;;;;;;;;;5021054;28;20426;-61
2021/06/12 05:37:21;;;;;;;4.82;3.95;;;;;;;;;;5006747;28;20022;-61
2021/06/12 05:39:47;;;;;;;4.68;3.85;;;;;;;;;;5007126;28;20022;-59
2021/06/12 05:42:12;;;;;;;5.07;4.18;;;;;;;;;;5009229;28;20026;-62
2021/06/12 05:44:38;;;;;;;4.68;4.18;;;;;;;;;;5028541;28;20095;-62
2021/06/12 05:47:03;;;;;;;4.72;4.15;;;;;;;;;;5025416;28;20034;-62
2021/06/12 05:49:28;;;;;;;5.38;4.40;;;;;;;;;;5027634;28;20036;-58
2021/06/12 05:51:54;;;;;;;4.10;3.67;;;;;;;;;;5027405;28;20860;-59
2021/06/12 05:54:19;;;;;;;4.72;4.05;;;;;;;;;;5009653;28;20026;-62
2021/06/12 05:56:45;;;;;;;5.18;4.57;;;;;;;;;;5020310;28;20047;-59
2021/06/12 05:59:10;;;;;;;5.03;4.38;;;;;;;;;;5025743;28;20568;-61
2021/06/12 06:01:35;;;;;;;4.50;4.07;;;;;;;;;;5029406;28;20490;-62
2021/06/12 06:04:01;;;;;;;5.20;4.50;;;;;;;;;;5028342;28;20100;-60
2021/06/12 06:06:26;;;;;;;6.00;4.38;;;;;;;;;;5026846;28;20112;-60
2021/06/12 06:08:52;;;;;;;4.68;4.18;;;;;;;;;;5028354;28;20033;-60
2021/06/12 06:11:17;;;;;;;5.32;4.53;;;;;;;;;;5029715;28;20454;-63
2021/06/12 06:13:44;;;;;;;4.97;4.47;;;;;;;;;;5029692;28;20366;-58
2021/06/12 06:16:09;;;;;;;5.28;4.53;;;;;;;;;;5020666;28;20033;-59
2021/06/12 06:18:35;;;;;;;5.25;4.72;;;;;;;;;;5010457;28;20029;-59
2021/06/12 06:21:01;;;;;;;5.03;4.50;;;;;;;;;;5025620;28;20029;-61
2021/06/12 06:23:26;;;;;;;5.53;5.03;;;;;;;;;;5025405;28;20699;-62
2021/06/12 06:25:51;;;;;;;5.43;4.93;;;;;;;;;;5026282;28;20033;-61
2021/06/12 06:28:17;;;;;;;5.38;4.88;;;;;;;;;;5025434;28;20104;-59
2021/06/12 06:30:42;;;;;;;5.90;4.82;;;;;;;;;;5021057;28;20022;-61
2021/06/12 06:33:08;;;;;;;5.45;4.93;;;;;;;;;;5024125;28;20028;-60
2021/06/12 06:35:33;;;;;;;5.25;4.75;;;;;;;;;;5026194;28;20157;-60
2021/06/12 06:37:59;;;;;;;5.15;4.63;;;;;;;;;;5024235;28;20029;-61
2021/06/12 06:40:25;;;;;;;6.22;5.18;;;;;;;;;;5030201;28;20052;-62
2021/06/12 06:42:50;;;;;;;5.35;4.38;;;;;;;;;;5025672;28;20040;-61
2021/06/12 06:45:15;;;;;;;6.20;4.90;;;;;;;;;;5021900;28;20064;-61
2021/06/12 06:47:41;;;;;;;6.18;5.60;;;;;;;;;;5005603;28;20032;-61
2021/06/12 06:50:07;;;;;;;7.65;5.55;;;;;;;;;;5006327;28;20045;-60
2021/06/12 06:52:32;;;;;;;6.70;5.10;;;;;;;;;;5013375;28;20037;-63
2021/06/12 06:54:58;;;;;;;6.85;4.70;;;;;;;;;;5006511;28;20022;-60
2021/06/12 06:57:23;;;;;;;6.72;5.35;;;;;;;;;;5005458;28;20030;-56
2021/06/12 06:59:48;;;;;;;4.82;4.32;;;;;;;;;;5065274;23;20135;-78
2021/06/12 07:02:14;;;;;;;5.90;5.22;;;;;;;;;;5062721;28;20036;-79
2021/06/12 07:04:40;;;;;;;4.88;4.38;;;;;;;;;;5051332;28;20491;-79
2021/06/12 07:07:06;;;;;;;5.30;4.43;;;;;;;;;;5060520;28;20257;-80
2021/06/12 07:09:31;;;;;;;6.57;4.95;;;;;;;;;;5037907;28;20029;-80
2021/06/12 07:11:59;;;;;;;6.65;5.18;;;;;;;;;;5032505;28;20391;-76
2021/06/12 07:14:25;;;;;;;5.43;4.93;;;;;;;;;;5068765;28;20097;-78
2021/06/12 07:16:50;;;;;;;5.45;4.70;;;;;;;;;;5067509;28;20115;-77
2021/06/12 07:19:16;;;;;;;6.05;4.82;;;;;;;;;;5067629;28;20531;-77
2021/06/12 07:21:41;;;;;;;6.43;4.40;;;;;;;;;;5050814;28;20025;-77
2021/06/12 07:24:07;;;;;;;6.82;4.50;;;;;;;;;;5046385;28;20028;-79
2021/06/12 07:26:32;;;;;;;6.00;4.35;;;;;;;;;;5051719;28;20029;-79
2021/06/12 07:28:57;;;;;;;6.53;4.63;;;;;;;;;;5054602;28;20119;-78
2021/06/12 07:31:23;;;;;;;6.63;4.47;;;;;;;;;;5070045;28;20515;-77
2021/06/12 07:33:48;;;;;;;6.38;5.00;;;;;;;;;;5053701;28;20045;-76
2021/06/12 07:36:13;;;;;;;7.70;5.03;;;;;;;;;;5068836;28;20500;-77
2021/06/12 07:38:39;;;;;;;7.20;4.80;;;;;;;;;;5073496;28;20029;-78
2021/06/12 07:41:04;;;;;;;6.93;4.95;;;;;;;;;;5064913;28;20025;-77
2021/06/12 07:43:29;;;;;;;7.03;4.40;;;;;;;;;;5062382;28;20036;-78
2021/06/12 07:45:55;;;;;;;8.80;4.45;;;;;;;;;;5039716;28;20021;-78
2021/06/12 07:48:20;;;;;;;6.07;4.30;;;;;;;;;;5052989;28;20481;-77
2021/06/12 07:50:45;;;;;;;10.48;4.82;;;;;;;;;;5072705;28;20016;-76
2021/06/12 07:53:11;;;;;;;12.10;4.95;;;;;;;;;;5064521;28;20032;-79
2021/06/12 07:55:36;;;;;;;7.90;4.07;;;;;;;;;;5055141;28;20021;-78
2021/06/12 07:58:02;;;;;;;7.53;4.05;;;;;;;;;;5059725;28;20476;-78
2021/06/12 08:00:27;;;;;;;7.47;4.10;;;;;;;;;;5056291;28;20032;-78
2021/06/12 08:02:53;;;;;;;6.07;3.65;;;;;;;;;;5072543;28;20503;-78
2021/06/12 08:05:18;;;;;;;5.70;3.90;;;;;;;;;;5073880;28;20028;-76
2021/06/12 08:07:44;;;;;;;4.30;3.80;;;;;;;;;;5054672;28;20032;-77
2021/06/12 08:10:09;;;;;;;7.60;3.45;;;;;;;;;;5024252;28;20358;-77
2021/06/12 08:12:36;;;;;;;4.85;3.63;;;;;;;;;;5029895;28;20301;-78
2021/06/12 08:15:02;;;;;;;7.45;3.70;;;;;;;;;;5061735;28;20082;-77
2021/06/12 08:17:27;;;;;;;6.97;3.50;;;;;;;;;;5062796;28;20072;-76
2021/06/12 08:19:52;;;;;;;4.85;3.60;;;;;;;;;;5044810;28;20029;-77
2021/06/12 08:22:18;;;;;;;8.57;3.50;;;;;;;;;;5041732;28;20029;-77
2021/06/12 08:24:43;;;;;;;6.00;3.50;;;;;;;;;;5059156;28;20109;-77
2021/06/12 08:27:08;;;;;;;6.30;3.80;;;;;;;;;;5043765;28;20123;-76
2021/06/12 08:29:34;;;;;;;6.60;3.58;;;;;;;;;;5064126;28;20024;-77
2021/06/12 08:31:59;;;;;;;5.90;3.63;;;;;;;;;;5059618;28;20049;-77
2021/06/12 08:34:25;;;;;;;5.65;3.20;;;;;;;;;;5057637;28;20028;-76
2021/06/12 08:36:50;;;;;;;9.00;3.70;;;;;;;;;;5043037;28;20032;-75
2021/06/12 08:39:16;;;;;;;5.00;3.13;;;;;;;;;;5024947;28;20040;-75
2021/06/12 08:41:42;;;;;;;6.00;3.65;;;;;;;;;;5056716;28;20043;-76
2021/06/12 08:44:10;;;;;;;5.90;3.50;;;;;;;;;;5063664;28;20103;-77
2021/06/12 08:46:35;;;;;;;5.70;3.70;;;;;;;;;;5060485;28;20032;-77
2021/06/12 08:49:00;;;;;;;7.30;4.18;;;;;;;;;;5057752;28;20024;-77
2021/06/12 08:51:26;;;;;;;5.78;3.65;;;;;;;;;;5042895;28;20082;-77
2021/06/12 08:53:51;;;;;;;4.40;3.55;;;;;;;;;;5061821;28;20072;-77
2021/06/12 08:56:16;;;;;;;4.97;3.40;;;;;;;;;;5059806;28;20016;-75
2021/06/12 08:58:42;;;;;;;4.53;3.53;;;;;;;;;;5042093;28;20405;-77
2021/06/12 09:01:07;;;;;;;5.63;3.53;;;;;;;;;;5058645;28;20107;-75
2021/06/12 09:03:39;;;;;;;5.03;3.78;;;;;;;;;;5060264;28;20102;-76
2021/06/12 09:06:05;;;;;;;5.63;3.67;;;;;;;;;;5032228;28;20028;-77
2021/06/12 09:08:32;;;;;;;4.93;3.33;;;;;;;;;;5054484;28;20059;-77
2021/06/12 09:10:59;;;;;;;3.95;3.53;;;;;;;;;;5044157;28;20020;-76
2021/06/12 09:14:01;;;;;;;5.18;3.40;;;;;;;;;;5066492;28;20485;-78
2021/06/12 09:16:31;;;;;;;4.28;2.88;;;;;;;;;;4978431;28;20569;-78
2021/06/12 09:19:17;;;;;;;4.50;3.53;;;;;;;;;;5053710;28;20425;-77
2021/06/12 09:21:50;;;;;;;8.60;3.22;;;;;;;;;;5053331;28;20024;-76
2021/06/12 09:24:32;;;;;;;5.20;3.60;;;;;;;;;;5041898;28;20369;-74
2021/06/12 09:27:04;;;;;;;7.25;3.40;;;;;;;;;;5047309;28;20130;-77
2021/06/12 09:29:33;;;;;;;6.30;3.20;;;;;;;;;;5087130;28;20028;-74
2021/06/12 09:31:59;;;;;;;4.60;3.10;;;;;;;;;;5054389;28;20051;-76
2021/06/12 09:34:25;;;;;;;4.57;3.10;;;;;;;;;;5067096;28;20055;-77
2021/06/12 09:36:50;;;;;;;7.25;3.10;;;;;;;;;;5055662;28;20024;-77
2021/06/12 09:39:21;;;;;;;5.65;3.28;;;;;;;;;;5034372;28;20039;-77
2021/06/12 09:41:48;;;;;;;4.95;2.97;;;;;;;;;;5043564;28;20020;-77
2021/06/12 09:44:35;;;;;;;5.85;3.30;;;;;;;;;;5047737;28;20632;-77
2021/06/12 09:47:24;;;;;;;5.60;3.30;;;;;;;;;;5077231;28;20070;-77
2021/06/12 09:49:50;;;;;;;7.50;3.60;;;;;;;;;;5062408;28;20376;-75
2021/06/12 09:52:17;;;;;;;4.72;3.38;;;;;;;;;;5062357;28;20031;-77
2021/06/12 09:54:46;;;;;;;4.45;3.20;;;;;;;;;;5062189;28;20071;-77
2021/06/12 09:57:14;;;;;;;5.72;3.38;;;;;;;;;;5075505;28;20031;-75
2021/06/12 09:59:44;;;;;;;4.95;3.20;;;;;;;;;;5046301;28;20036;-77
2021/06/12 10:02:10;;;;;;;6.18;3.30;;;;;;;;;;5032178;28;20032;-76
2021/06/12 10:04:36;;;;;;;5.25;3.30;;;;;;;;;;5046589;28;20104;-79
2021/06/12 10:07:01;;;;;;;6.65;3.20;;;;;;;;;;5036739;28;20044;-77
2021/06/12 10:09:27;;;;;;;5.45;3.55;;;;;;;;;;5062401;28;20037;-78
2021/06/12 10:11:53;;;;;;;6.07;3.70;;;;;;;;;;5038730;28;20481;-78
2021/06/12 10:14:18;;;;;;;4.10;3.28;;;;;;;;;;5030641;28;20056;-75
2021/06/12 10:16:44;;;;;;;5.55;3.20;;;;;;;;;;5042417;28;20429;-77
2021/06/12 10:19:10;;;;;;;7.30;3.13;;;;;;;;;;5046400;28;20036;-78
2021/06/12 10:21:35;;;;;;;5.32;3.40;;;;;;;;;;5047566;28;20020;-77
2021/06/12 10:24:07;;;;;;;8.23;3.40;;;;;;;;;;5053339;28;20088;-76
2021/06/12 10:26:33;;;;;;;4.60;3.03;;;;;;;;;;5025499;28;20051;-75
2021/06/12 10:28:58;;;;;;;5.72;3.33;;;;;;;;;;5046924;28;20479;-78
2021/06/12 10:31:24;;;;;;;7.10;3.47;;;;;;;;;;5042282;28;20723;-77
2021/06/12 10:33:52;;;;;;;6.75;3.45;;;;;;;;;;5037289;28;20084;-79
2021/06/12 10:36:23;;;;;;;4.90;3.50;;;;;;;;;;5059600;28;20047;-77
2021/06/12 10:38:48;;;;;;;4.95;3.45;;;;;;;;;;5041634;28;20020;-76
2021/06/12 10:41:17;;;;;;;3.85;3.45;;;;;;;;;;5069477;28;20035;-76
2021/06/12 10:43:42;;;;;;;7.70;3.67;;;;;;;;;;5061011;28;20081;-76
2021/06/12 10:46:08;;;;;;;3.92;3.15;;;;;;;;;;5042709;28;20028;-77
2021/06/12 10:48:36;;;;;;;5.18;3.70;;;;;;;;;;5057002;28;20096;-77
2021/06/12 10:51:01;;;;;;;5.57;3.33;;;;;;;;;;5069243;28;20069;-81
2021/06/12 10:53:37;;;;;;;7.07;3.83;;;;;;;;;;5067785;28;20031;-81
2021/06/12 10:56:09;;;;;;;4.88;3.40;;;;;;;;;;5035552;28;20024;-83
2021/06/12 10:58:35;;;;;;;5.75;3.28;;;;;;;;;;5044459;28;20024;-81
2021/06/12 11:01:13;;;;;;;6.70;3.42;;;;;;;;;;5077594;28;20036;-81
2021/06/12 11:03:54;;;;;;;4.72;3.70;;;;;;;;;;5075180;28;20070;-81
2021/06/12 11:09:20;;;;;;;5.32;3.45;;;;;;;;;;5060232;28;20115;-81
2021/06/12 11:11:53;;;;;;;6.47;3.53;;;;;;;;;;5062449;28;20104;-82
2021/06/12 11:14:21;;;;;;;6.78;3.17;;;;;;;;;;5031247;28;20119;-83
2021/06/12 11:19:39;;;;;;;7.53;3.90;;;;;;;;;;5079483;28;20051;-81
2021/06/12 11:22:32;;;;;;;5.45;3.35;;;;;;;;;;5035483;28;20046;-79
2021/06/12 11:25:13;;;;;;;4.82;3.70;;;;;;;;;;5083826;28;20040;-81
2021/06/12 11:27:39;;;;;;;6.75;3.53;;;;;;;;;;5066122;28;20017;-80
2021/06/12 11:30:11;;;;;;;6.28;3.30;;;;;;;;;;5049026;28;20385;-80
2021/06/12 11:32:37;;;;;;;4.88;3.47;;;;;;;;;;5069631;28;20027;-80
2021/06/12 11:35:03;;;;;;;7.65;3.92;;;;;;;;;;5031720;28;20046;-80
2021/06/12 11:37:29;;;;;;;4.65;3.33;;;;;;;;;;5045932;28;20139;-80
2021/06/12 11:39:59;;;;;;;5.72;3.60;;;;;;;;;;5049628;28;20028;-80
2021/06/12 11:42:25;;;;;;;4.43;3.55;;;;;;;;;;5047211;28;20456;-80
2021/06/12 11:44:50;;;;;;;6.90;3.55;;;;;;;;;;5048622;28;20052;-80
2021/06/12 11:47:26;;;;;;;4.60;3.25;;;;;;;;;;5050249;28;20032;-79
2021/06/12 11:49:51;;;;;;;6.47;3.20;;;;;;;;;;5052495;28;20678;-80
2021/06/12 11:52:17;;;;;;;5.85;3.50;;;;;;;;;;5047351;28;20029;-79
2021/06/12 11:54:42;;;;;;;7.90;3.72;;;;;;;;;;5063937;28;20034;-79
2021/06/12 11:57:07;;;;;;;7.50;3.50;;;;;;;;;;5046561;28;20032;-80
2021/06/12 11:59:34;;;;;;;7.60;3.30;;;;;;;;;;5044529;28;20100;-81
2021/06/12 12:02:06;;;;;;;7.97;3.55;;;;;;;;;;5045558;28;20434;-80
2021/06/12 12:04:39;;;;;;;7.72;3.40;;;;;;;;;;5030869;28;20408;-80
2021/06/12 12:07:05;;;;;;;8.57;3.45;;;;;;;;;;5047722;28;20024;-82
2021/06/12 12:09:47;;;;;;;6.00;2.92;;;;;;;;;;5029618;28;20116;-82
2021/06/12 12:12:17;;;;;;;7.70;3.35;;;;;;;;;;5065113;28;20146;-80
2021/06/12 12:14:44;;;;;;;5.78;3.10;;;;;;;;;;5065243;28;20107;-80
2021/06/12 12:17:26;;;;;;;6.03;3.42;;;;;;;;;;5048072;28;20029;-81
2021/06/12 12:20:03;;;;;;;8.77;3.80;;;;;;;;;;5029682;28;20028;-81
2021/06/12 12:22:41;;;;;;;6.60;3.75;;;;;;;;;;5047764;28;20475;-80
2021/06/12 12:25:08;;;;;;;7.00;3.92;;;;;;;;;;5042420;28;20028;-82
2021/06/12 12:27:34;;;;;;;5.78;3.85;;;;;;;;;;5042862;28;20481;-78
2021/06/12 12:29:59;;;;;;;7.22;4.07;;;;;;;;;;5043834;28;20020;-78
2021/06/12 12:32:25;;;;;;;5.32;4.38;;;;;;;;;;5047976;28;20031;-80
2021/06/12 12:34:51;;;;;;;5.03;4.10;;;;;;;;;;5047842;28;20490;-79
2021/06/12 12:37:18;;;;;;;4.07;3.50;;;;;;;;;;5045577;28;20313;-79
2021/06/12 12:39:45;;;;;;;4.75;4.03;;;;;;;;;;5047980;28;20039;-78
2021/06/12 12:42:19;;;;;;;5.95;4.18;;;;;;;;;;5066073;28;20025;-79
2021/06/12 12:44:45;;;;;;;7.72;4.50;;;;;;;;;;5047917;28;20023;-79
2021/06/12 12:47:12;;;;;;;7.53;4.47;;;;;;;;;;5029529;28;20108;-80
2021/06/12 12:49:42;;;;;;;7.25;4.28;;;;;;;;;;5053799;28;20036;-79
2021/06/12 12:52:23;;;;;;;8.40;3.88;;;;;;;;;;5048178;28;20032;-79
2021/06/12 12:55:08;;;;;;;9.93;4.50;;;;;;;;;;5057167;28;20031;-80
2021/06/12 12:57:49;;;;;;;6.35;4.53;;;;;;;;;;5026721;28;20017;-79
2021/06/12 13:00:20;;;;;;;6.18;4.82;;;;;;;;;;5062635;28;20350;-80
2021/06/12 13:02:52;;;;;;;;;;;;;;;;;;5031323;28;20035;-80
2021/06/12 13:05:18;;;;;;;12.68;5.18;;;;;;;;;;5042839;28;19907;-79
2021/06/12 13:07:43;;;;;;;11.02;6.78;;;;;;;;;;5027574;28;20537;-79
2021/06/12 13:10:12;;;;;;;27.40;10.52;;;;;;;;;;5059854;28;20046;-79
2021/06/12 13:12:37;;;;;;;30.20;9.75;;;;;;;;;;5048837;28;20264;-80
2021/06/12 13:15:10;;;;;;;23.20;9.10;;;;;;;;;;5049010;28;20392;-79
2021/06/12 13:17:36;;;;;;;14.00;7.53;;;;;;;;;;5059961;28;20016;-78
2021/06/12 13:20:09;;;;;;;14.43;6.68;;;;;;;;;;5047739;28;20020;-79
2021/06/12 13:22:45;;;;;;;11.20;6.05;;;;;;;;;;5043752;28;20028;-78
2021/06/12 13:25:16;;;;;;;11.90;6.03;;;;;;;;;;5040040;28;20016;-79
2021/06/12 13:27:45;;;;;;;10.70;5.85;;;;;;;;;;5045645;28;20020;-79
2021/06/12 13:30:17;;;;;;;12.63;5.63;;;;;;;;;;5077989;28;20024;-79
2021/06/12 13:32:49;;;;;;;130.30;49.97;;;;;;;;;;5057931;28;20024;-80
2021/06/12 13:35:57;;;;;;;61.58;24.48;;;;;;;;;;5062640;28;20096;-79
2021/06/12 13:38:30;;;;;;;41.08;17.85;;;;;;;;;;4964021;28;20393;-79
2021/06/12 13:41:09;;;;;;;48.92;18.05;;;;;;;;;;4988058;28;20486;-79
2021/06/12 13:43:41;;;;;;;30.45;14.30;;;;;;;;;;5029920;28;20540;-77
2021/06/12 13:46:21;;;;;;;30.17;12.85;;;;;;;;;;5044835;28;20028;-79
2021/06/12 13:48:47;;;;;;;27.88;11.23;;;;;;;;;;5049394;28;20020;-77
2021/06/12 13:51:12;;;;;;;23.88;10.63;;;;;;;;;;5060572;28;20078;-80
2021/06/12 13:53:40;;;;;;;19.33;9.45;;;;;;;;;;5048457;28;20340;-80
2021/06/12 13:56:07;;;;;;;18.90;8.55;;;;;;;;;;5063175;28;20020;-80
2021/06/12 13:58:33;;;;;;;16.00;7.82;;;;;;;;;;5028677;28;20319;-78
2021/06/12 14:00:58;;;;;;;16.02;7.18;;;;;;;;;;5043050;28;20031;-79
2021/06/12 14:03:24;;;;;;;13.70;7.03;;;;;;;;;;5045396;28;20399;-79
2021/06/12 14:05:49;;;;;;;13.52;7.20;;;;;;;;;;5043388;28;20044;-79
2021/06/12 14:08:15;;;;;;;14.50;6.53;;;;;;;;;;5038031;23;20099;-57
2021/06/12 14:10:40;;;;;;;12.30;6.10;;;;;;;;;;5046406;28;20080;-56
2021/06/12 14:13:05;;;;;;;14.75;6.20;;;;;;;;;;5058799;28;20088;-54
2021/06/12 14:15:31;;;;;;;11.00;6.53;;;;;;;;;;5051598;28;20082;-55
2021/06/12 14:17:57;;;;;;;11.82;6.15;;;;;;;;;;5045962;28;20362;-57
2021/06/12 14:20:22;;;;;;;11.45;5.43;;;;;;;;;;5033880;28;20029;-55
2021/06/12 14:22:47;;;;;;;10.00;5.25;;;;;;;;;;5034847;28;20029;-54
2021/06/12 14:25:14;;;;;;;11.23;4.97;;;;;;;;;;5040666;28;20132;-58
2021/06/12 14:27:39;;;;;;;10.30;5.43;;;;;;;;;;5029708;28;20527;-56
2021/06/12 14:30:06;;;;;;;10.23;5.80;;;;;;;;;;5030765;28;20029;-59
2021/06/12 14:32:32;;;;;;;9.07;4.72;;;;;;;;;;5037465;28;20037;-57
2021/06/12 14:34:57;;;;;;;18.95;5.45;;;;;;;;;;5043014;28;20029;-56
2021/06/12 14:37:23;;;;;;;10.18;4.88;;;;;;;;;;5046143;28;20026;-53
2021/06/12 14:39:48;;;;;;;8.18;4.93;;;;;;;;;;5031385;28;20025;-53
2021/06/12 14:42:17;;;;;;;9.30;4.50;;;;;;;;;;5031588;28;20498;-57
2021/06/12 14:44:43;;;;;;;9.23;4.75;;;;;;;;;;5034119;28;20055;-55
2021/06/12 14:47:08;;;;;;;9.48;4.15;;;;;;;;;;5031152;28;20055;-53